sensor_id;sensor_type;location;lat;lon;timestamp;pressure;altitude;pressure_sealevel;temperature;humidity
48926;BME280;39838;59.938;30.642;2024-03-22T00:00:42;100480.19;;;4.98;79.25
48926;BME280;39838;59.938;30.642;2024-03-22T00:03:10;100481.13;;;5.02;79.13
48926;BME280;39838;59.938;30.642;2024-03-22T00:05:36;100469.16;;;5.04;78.93
48926;BME280;39838;59.938;30.642;2024-03-22T00:08:03;100470.13;;;5.09;78.45
48926;BME280;39838;59.938;30.642;2024-03-22T00:10:30;100465.78;;;5.08;78.83
48926;BME280;39838;59.938;30.642;2024-03-22T00:12:57;100459.75;;;5.06;78.43
48926;BME280;39838;59.938;30.642;2024-03-22T00:15:23;100453.63;;;5.01;78.89
48926;BME280;39838;59.938;30.642;2024-03-22T00:17:51;100459.53;;;4.95;79.26
48926;BME280;39838;59.938;30.642;2024-03-22T00:20:17;100455.25;;;4.96;78.52
48926;BME280;39838;59.938;30.642;2024-03-22T00:22:45;100448.41;;;4.98;78.86
48926;BME280;39838;59.938;30.642;2024-03-22T00:25:11;100446.75;;;5.00;78.89
48926;BME280;39838;59.938;30.642;2024-03-22T00:27:39;100439.81;;;4.96;79.16
48926;BME280;39838;59.938;30.642;2024-03-22T00:30:06;100444.94;;;4.96;79.25
48926;BME280;39838;59.938;30.642;2024-03-22T00:32:33;100444.09;;;4.95;79.44
48926;BME280;39838;59.938;30.642;2024-03-22T00:35:01;100432.91;;;4.95;80.05
48926;BME280;39838;59.938;30.642;2024-03-22T00:37:29;100438.94;;;4.95;80.12
48926;BME280;39838;59.938;30.642;2024-03-22T00:39:55;100435.50;;;4.95;80.25
48926;BME280;39838;59.938;30.642;2024-03-22T00:42:22;100431.09;;;4.90;80.39
48926;BME280;39838;59.938;30.642;2024-03-22T00:44:48;100432.78;;;4.88;80.35
48926;BME280;39838;59.938;30.642;2024-03-22T00:47:16;100424.22;;;4.89;81.24
48926;BME280;39838;59.938;30.642;2024-03-22T00:49:42;100435.53;;;4.96;80.49
48926;BME280;39838;59.938;30.642;2024-03-22T00:52:10;100424.28;;;4.92;80.79
48926;BME280;39838;59.938;30.642;2024-03-22T00:54:36;100430.25;;;4.91;80.62
48926;BME280;39838;59.938;30.642;2024-03-22T00:57:06;100413.84;;;4.86;81.26
48926;BME280;39838;59.938;30.642;2024-03-22T00:59:32;100411.25;;;4.85;80.97
48926;BME280;39838;59.938;30.642;2024-03-22T01:01:59;100411.38;;;4.91;80.92
48926;BME280;39838;59.938;30.642;2024-03-22T01:04:26;100413.97;;;4.92;81.58
48926;BME280;39838;59.938;30.642;2024-03-22T01:06:53;100408.78;;;4.89;80.80
48926;BME280;39838;59.938;30.642;2024-03-22T01:09:20;100403.63;;;4.89;81.00
48926;BME280;39838;59.938;30.642;2024-03-22T01:11:48;100405.22;;;4.84;80.79
48926;BME280;39838;59.938;30.642;2024-03-22T01:14:14;100398.34;;;4.83;81.33
48926;BME280;39838;59.938;30.642;2024-03-22T01:16:41;100400.03;;;4.81;81.26
48926;BME280;39838;59.938;30.642;2024-03-22T01:19:08;100393.09;;;4.79;81.93
48926;BME280;39838;59.938;30.642;2024-03-22T01:21:35;100387.94;;;4.79;81.32
48926;BME280;39838;59.938;30.642;2024-03-22T01:24:01;100385.31;;;4.76;81.62
48926;BME280;39838;59.938;30.642;2024-03-22T01:26:30;100392.94;;;4.73;81.26
48926;BME280;39838;59.938;30.642;2024-03-22T01:28:56;100380.03;;;4.70;82.09
48926;BME280;39838;59.938;30.642;2024-03-22T01:31:23;100373.16;;;4.70;81.67
48926;BME280;39838;59.938;30.642;2024-03-22T01:33:50;100371.47;;;4.71;82.15
48926;BME280;39838;59.938;30.642;2024-03-22T01:36:17;100364.59;;;4.70;82.40
48926;BME280;39838;59.938;30.642;2024-03-22T01:38:43;100360.22;;;4.67;82.11
48926;BME280;39838;59.938;30.642;2024-03-22T01:41:10;100362.78;;;4.67;82.07
48926;BME280;39838;59.938;30.642;2024-03-22T01:43:38;100356.88;;;4.71;82.78
48926;BME280;39838;59.938;30.642;2024-03-22T01:46:07;100351.72;;;4.70;82.52
48926;BME280;39838;59.938;30.642;2024-03-22T01:48:34;100339.59;;;4.65;82.14
48926;BME280;39838;59.938;30.642;2024-03-22T01:51:02;100349.88;;;4.64;82.89
48926;BME280;39838;59.938;30.642;2024-03-22T01:53:28;100349.00;;;4.63;82.69
48926;BME280;39838;59.938;30.642;2024-03-22T01:55:55;100342.91;;;4.60;82.99
48926;BME280;39838;59.938;30.642;2024-03-22T01:58:22;100342.88;;;4.57;83.76
48926;BME280;39838;59.938;30.642;2024-03-22T02:00:51;100337.69;;;4.55;83.03
48926;BME280;39838;59.938;30.642;2024-03-22T02:03:17;100337.69;;;4.55;83.90
48926;BME280;39838;59.938;30.642;2024-03-22T02:05:44;100327.44;;;4.58;83.80
48926;BME280;39838;59.938;30.642;2024-03-22T02:08:10;100327.47;;;4.60;83.52
48926;BME280;39838;59.938;30.642;2024-03-22T02:10:37;100330.97;;;4.62;83.30
48926;BME280;39838;59.938;30.642;2024-03-22T02:13:04;100326.75;;;4.65;83.90
48926;BME280;39838;59.938;30.642;2024-03-22T02:15:31;100327.59;;;4.66;83.21
48926;BME280;39838;59.938;30.642;2024-03-22T02:18:18;100327.56;;;4.63;83.26
48926;BME280;39838;59.938;30.642;2024-03-22T02:20:45;100327.44;;;4.58;83.65
48926;BME280;39838;59.938;30.642;2024-03-22T02:23:11;100322.28;;;4.57;83.72
48926;BME280;39838;59.938;30.642;2024-03-22T02:25:40;100318.03;;;4.60;84.18
48926;BME280;39838;59.938;30.642;2024-03-22T02:28:06;100322.47;;;4.66;84.24
48926;BME280;39838;59.938;30.642;2024-03-22T02:30:33;100318.19;;;4.66;83.82
48926;BME280;39838;59.938;30.642;2024-03-22T02:32:59;100317.31;;;4.66;83.83
48926;BME280;39838;59.938;30.642;2024-03-22T02:35:27;100311.31;;;4.67;84.18
48926;BME280;39838;59.938;30.642;2024-03-22T02:37:53;100308.84;;;4.70;83.52
48926;BME280;39838;59.938;30.642;2024-03-22T02:40:20;100306.16;;;4.65;83.65
48926;BME280;39838;59.938;30.642;2024-03-22T02:42:48;100302.59;;;4.59;83.88
48926;BME280;39838;59.938;30.642;2024-03-22T02:45:15;100299.88;;;4.53;84.12
48926;BME280;39838;59.938;30.642;2024-03-22T02:47:41;100302.44;;;4.51;84.30
48926;BME280;39838;59.938;30.642;2024-03-22T02:50:09;100296.44;;;4.52;84.59
48926;BME280;39838;59.938;30.642;2024-03-22T02:52:35;100290.44;;;4.52;84.63
48926;BME280;39838;59.938;30.642;2024-03-22T02:55:02;100285.25;;;4.50;84.40
48926;BME280;39838;59.938;30.642;2024-03-22T02:57:29;100292.94;;;4.47;83.80
48926;BME280;39838;59.938;30.642;2024-03-22T02:59:59;100288.44;;;4.38;84.61
48926;BME280;39838;59.938;30.642;2024-03-22T03:02:26;100281.56;;;4.39;84.84
48926;BME280;39838;59.938;30.642;2024-03-22T03:04:53;100288.53;;;4.43;84.74
48926;BME280;39838;59.938;30.642;2024-03-22T03:07:19;100289.41;;;4.44;84.76
48926;BME280;39838;59.938;30.642;2024-03-22T03:09:46;100278.25;;;4.43;85.01
48926;BME280;39838;59.938;30.642;2024-03-22T03:12:12;100280.00;;;4.46;84.21
48926;BME280;39838;59.938;30.642;2024-03-22T03:14:39;100279.13;;;4.44;84.98
48926;BME280;39838;59.938;30.642;2024-03-22T03:17:07;100282.66;;;4.49;84.71
48926;BME280;39838;59.938;30.642;2024-03-22T03:19:34;100282.78;;;4.55;84.81
48926;BME280;39838;59.938;30.642;2024-03-22T03:22:00;100271.69;;;4.57;84.37
48926;BME280;39838;59.938;30.642;2024-03-22T03:24:27;100281.16;;;4.60;84.07
48926;BME280;39838;59.938;30.642;2024-03-22T03:26:54;100279.50;;;4.62;84.13
48926;BME280;39838;59.938;30.642;2024-03-22T03:29:21;100269.16;;;4.60;83.52
48926;BME280;39838;59.938;30.642;2024-03-22T03:31:47;100266.63;;;4.62;83.77
48926;BME280;39838;59.938;30.642;2024-03-22T03:34:16;100259.75;;;4.61;84.04
48926;BME280;39838;59.938;30.642;2024-03-22T03:36:42;100251.91;;;4.55;83.76
48926;BME280;39838;59.938;30.642;2024-03-22T03:39:09;100244.19;;;4.55;84.70
48926;BME280;39838;59.938;30.642;2024-03-22T03:41:36;100253.66;;;4.56;84.51
48926;BME280;39838;59.938;30.642;2024-03-22T03:44:03;100245.00;;;4.54;83.72
48926;BME280;39838;59.938;30.642;2024-03-22T03:46:29;100243.25;;;4.51;83.59
48926;BME280;39838;59.938;30.642;2024-03-22T03:48:57;100232.97;;;4.51;83.84
48926;BME280;39838;59.938;30.642;2024-03-22T03:51:24;100232.06;;;4.49;83.87
48926;BME280;39838;59.938;30.642;2024-03-22T03:53:51;100220.91;;;4.47;84.39
48926;BME280;39838;59.938;30.642;2024-03-22T03:56:17;100221.66;;;4.43;83.74
48926;BME280;39838;59.938;30.642;2024-03-22T03:58:45;100214.78;;;4.42;84.01
48926;BME280;39838;59.938;30.642;2024-03-22T04:01:11;100213.06;;;4.43;84.56
48926;BME280;39838;59.938;30.642;2024-03-22T04:03:39;100207.06;;;4.42;84.31
48926;BME280;39838;59.938;30.642;2024-03-22T04:06:05;100213.00;;;4.39;84.14
48926;BME280;39838;59.938;30.642;2024-03-22T04:08:33;100216.50;;;4.43;84.31
48926;BME280;39838;59.938;30.642;2024-03-22T04:11:00;100223.41;;;4.46;84.34
48926;BME280;39838;59.938;30.642;2024-03-22T04:13:28;100217.44;;;4.47;84.27
48926;BME280;39838;59.938;30.642;2024-03-22T04:15:58;100212.25;;;4.45;83.93
48926;BME280;39838;59.938;30.642;2024-03-22T04:18:25;100207.09;;;4.45;83.83
48926;BME280;39838;59.938;30.642;2024-03-22T04:20:55;100207.94;;;4.44;83.46
48926;BME280;39838;59.938;30.642;2024-03-22T04:23:23;100212.28;;;4.47;83.36
48926;BME280;39838;59.938;30.642;2024-03-22T04:25:55;100202.88;;;4.47;83.21
48926;BME280;39838;59.938;30.642;2024-03-22T04:28:22;100209.69;;;4.45;83.46
48926;BME280;39838;59.938;30.642;2024-03-22T04:30:57;100201.09;;;4.45;83.79
48926;BME280;39838;59.938;30.642;2024-03-22T04:33:25;100194.28;;;4.47;83.72
48926;BME280;39838;59.938;30.642;2024-03-22T04:35:51;100193.47;;;4.49;83.77
48926;BME280;39838;59.938;30.642;2024-03-22T04:38:19;100185.75;;;4.48;82.95
48926;BME280;39838;59.938;30.642;2024-03-22T04:40:46;100158.00;;;4.33;82.73
48926;BME280;39838;59.938;30.642;2024-03-22T04:43:15;100184.81;;;4.44;82.78
48926;BME280;39838;59.938;30.642;2024-03-22T04:45:43;100184.75;;;4.41;82.99
48926;BME280;39838;59.938;30.642;2024-03-22T04:48:10;100188.25;;;4.45;83.10
48926;BME280;39838;59.938;30.642;2024-03-22T04:50:37;100192.59;;;4.47;83.62
48926;BME280;39838;59.938;30.642;2024-03-22T04:53:03;100189.22;;;4.51;83.77
48926;BME280;39838;59.938;30.642;2024-03-22T04:55:31;100178.13;;;4.54;83.09
48926;BME280;39838;59.938;30.642;2024-03-22T04:57:57;100181.59;;;4.54;82.99
48926;BME280;39838;59.938;30.642;2024-03-22T05:00:25;100167.00;;;4.55;83.57
48926;BME280;39838;59.938;30.642;2024-03-22T05:02:52;100171.34;;;4.59;83.29
48926;BME280;39838;59.938;30.642;2024-03-22T05:05:19;100166.16;;;4.54;83.44
48926;BME280;39838;59.938;30.642;2024-03-22T05:07:45;100162.59;;;4.48;83.08
48926;BME280;39838;59.938;30.642;2024-03-22T05:10:12;100147.94;;;4.45;83.14
48926;BME280;39838;59.938;30.642;2024-03-22T05:12:39;100139.38;;;4.45;83.42
48926;BME280;39838;59.938;30.642;2024-03-22T05:15:07;100142.81;;;4.47;83.26
48926;BME280;39838;59.938;30.642;2024-03-22T05:17:34;100140.38;;;4.53;82.69
48926;BME280;39838;59.938;30.642;2024-03-22T05:20:02;100136.09;;;4.53;83.19
48926;BME280;39838;59.938;30.642;2024-03-22T05:22:30;100137.78;;;4.51;82.90
48926;BME280;39838;59.938;30.642;2024-03-22T05:24:57;100133.34;;;4.44;82.64
48926;BME280;39838;59.938;30.642;2024-03-22T05:27:24;100131.63;;;4.43;83.52
48926;BME280;39838;59.938;30.642;2024-03-22T05:29:51;100139.38;;;4.45;82.96
48926;BME280;39838;59.938;30.642;2024-03-22T05:32:17;100137.69;;;4.47;83.62
48926;BME280;39838;59.938;30.642;2024-03-22T05:34:46;100140.25;;;4.47;83.53
48926;BME280;39838;59.938;30.642;2024-03-22T05:37:12;100137.75;;;4.50;83.58
48926;BME280;39838;59.938;30.642;2024-03-22T05:39:39;100125.84;;;4.55;83.08
48926;BME280;39838;59.938;30.642;2024-03-22T05:42:06;100118.06;;;4.52;83.16
48926;BME280;39838;59.938;30.642;2024-03-22T05:44:33;100131.88;;;4.57;83.17
48926;BME280;39838;59.938;30.642;2024-03-22T05:46:59;100128.47;;;4.58;84.08
48926;BME280;39838;59.938;30.642;2024-03-22T05:49:27;100124.16;;;4.57;84.18
48926;BME280;39838;59.938;30.642;2024-03-22T05:51:54;100122.50;;;4.60;83.72
48926;BME280;39838;59.938;30.642;2024-03-22T05:54:21;100117.41;;;4.63;83.75
48926;BME280;39838;59.938;30.642;2024-03-22T05:56:48;100114.94;;;4.68;83.50
48926;BME280;39838;59.938;30.642;2024-03-22T05:59:15;100109.81;;;4.71;83.96
48926;BME280;39838;59.938;30.642;2024-03-22T06:01:41;100105.63;;;4.75;83.76
48926;BME280;39838;59.938;30.642;2024-03-22T06:04:08;100102.22;;;4.77;83.45
48926;BME280;39838;59.938;30.642;2024-03-22T06:06:35;100100.53;;;4.79;83.03
48926;BME280;39838;59.938;30.642;2024-03-22T06:09:04;100089.38;;;4.80;83.83
48926;BME280;39838;59.938;30.642;2024-03-22T06:11:34;100088.63;;;4.86;83.58
48926;BME280;39838;59.938;30.642;2024-03-22T06:14:01;100088.69;;;4.89;82.96
48926;BME280;39838;59.938;30.642;2024-03-22T06:16:27;100083.47;;;4.86;83.42
48926;BME280;39838;59.938;30.642;2024-03-22T06:18:54;100082.63;;;4.87;83.56
48926;BME280;39838;59.938;30.642;2024-03-22T06:21:21;100084.28;;;4.82;83.13
48926;BME280;39838;59.938;30.642;2024-03-22T06:23:51;100079.09;;;4.80;84.10
48926;BME280;39838;59.938;30.642;2024-03-22T06:26:19;100075.59;;;4.75;83.31
48926;BME280;39838;59.938;30.642;2024-03-22T06:28:46;100072.09;;;4.73;83.59
48926;BME280;39838;59.938;30.642;2024-03-22T06:31:12;100085.03;;;4.75;83.81
48926;BME280;39838;59.938;30.642;2024-03-22T06:33:39;100087.63;;;4.76;84.07
48926;BME280;39838;59.938;30.642;2024-03-22T06:36:06;100079.06;;;4.79;84.24
48926;BME280;39838;59.938;30.642;2024-03-22T06:38:34;100082.50;;;4.79;84.15
48926;BME280;39838;59.938;30.642;2024-03-22T06:41:00;100077.44;;;4.84;84.62
48926;BME280;39838;59.938;30.642;2024-03-22T06:43:28;100078.31;;;4.84;84.30
48926;BME280;39838;59.938;30.642;2024-03-22T06:45:54;100079.25;;;4.88;84.11
48926;BME280;39838;59.938;30.642;2024-03-22T06:48:22;100074.03;;;4.86;84.39
48926;BME280;39838;59.938;30.642;2024-03-22T06:50:48;100083.59;;;4.93;84.69
48926;BME280;39838;59.938;30.642;2024-03-22T06:53:15;100073.28;;;4.93;84.08
48926;BME280;39838;59.938;30.642;2024-03-22T06:55:41;100073.28;;;4.92;84.46
48926;BME280;39838;59.938;30.642;2024-03-22T06:58:08;100083.59;;;4.93;85.10
48926;BME280;39838;59.938;30.642;2024-03-22T07:00:36;100069.00;;;4.92;84.82
48926;BME280;39838;59.938;30.642;2024-03-22T07:03:03;100062.97;;;4.90;84.87
48926;BME280;39838;59.938;30.642;2024-03-22T07:05:29;100062.91;;;4.87;85.03
48926;BME280;39838;59.938;30.642;2024-03-22T07:07:56;100062.91;;;4.87;84.85
48926;BME280;39838;59.938;30.642;2024-03-22T07:10:24;100050.81;;;4.82;85.20
48926;BME280;39838;59.938;30.642;2024-03-22T07:12:54;100060.44;;;4.93;84.87
48926;BME280;39838;59.938;30.642;2024-03-22T07:15:21;100059.72;;;5.02;84.50
48926;BME280;39838;59.938;30.642;2024-03-22T07:17:50;100058.03;;;5.04;84.56
48926;BME280;39838;59.938;30.642;2024-03-22T07:20:16;100045.06;;;5.00;84.58
48926;BME280;39838;59.938;30.642;2024-03-22T07:22:43;100047.66;;;5.01;84.71
48926;BME280;39838;59.938;30.642;2024-03-22T07:25:09;100038.31;;;5.08;84.68
48926;BME280;39838;59.938;30.642;2024-03-22T07:27:37;100028.94;;;5.11;84.81
48926;BME280;39838;59.938;30.642;2024-03-22T07:30:04;100023.81;;;5.14;84.79
48926;BME280;39838;59.938;30.642;2024-03-22T07:32:32;100028.09;;;5.11;84.61
48926;BME280;39838;59.938;30.642;2024-03-22T07:34:59;100021.13;;;5.05;84.89
48926;BME280;39838;59.938;30.642;2024-03-22T07:37:26;100023.72;;;5.05;85.00
48926;BME280;39838;59.938;30.642;2024-03-22T07:39:53;100012.53;;;5.05;84.61
48926;BME280;39838;59.938;30.642;2024-03-22T07:42:21;100023.69;;;5.02;85.07
48926;BME280;39838;59.938;30.642;2024-03-22T07:44:47;100011.59;;;4.98;84.96
48926;BME280;39838;59.938;30.642;2024-03-22T07:47:14;100001.19;;;4.92;84.58
48926;BME280;39838;59.938;30.642;2024-03-22T07:49:40;100006.41;;;4.95;84.78
48926;BME280;39838;59.938;30.642;2024-03-22T07:52:09;100003.78;;;4.93;84.82
48926;BME280;39838;59.938;30.642;2024-03-22T07:54:35;100003.00;;;4.98;85.41
48926;BME280;39838;59.938;30.642;2024-03-22T07:57:02;99984.16;;;5.00;84.89
48926;BME280;39838;59.938;30.642;2024-03-22T07:59:29;99997.97;;;5.05;85.58
48926;BME280;39838;59.938;30.642;2024-03-22T08:01:57;99988.44;;;5.00;84.84
48926;BME280;39838;59.938;30.642;2024-03-22T08:04:23;99985.75;;;4.92;85.79
48926;BME280;39838;59.938;30.642;2024-03-22T08:06:50;99979.66;;;4.87;85.54
48926;BME280;39838;59.938;30.642;2024-03-22T08:09:18;99966.66;;;4.76;86.29
48926;BME280;39838;59.938;30.642;2024-03-22T08:11:45;99978.78;;;4.85;86.45
48926;BME280;39838;59.938;30.642;2024-03-22T08:14:12;99969.34;;;4.85;86.36
48926;BME280;39838;59.938;30.642;2024-03-22T08:16:39;99967.72;;;4.90;85.85
48926;BME280;39838;59.938;30.642;2024-03-22T08:19:05;99962.66;;;4.97;86.34
48926;BME280;39838;59.938;30.642;2024-03-22T08:21:32;99964.41;;;5.01;85.94
48926;BME280;39838;59.938;30.642;2024-03-22T08:23:58;99960.09;;;4.98;86.46
48926;BME280;39838;59.938;30.642;2024-03-22T08:26:27;99960.88;;;4.94;85.99
48926;BME280;39838;59.938;30.642;2024-03-22T08:28:53;99956.56;;;4.91;87.01
48926;BME280;39838;59.938;30.642;2024-03-22T08:31:20;99953.03;;;4.85;86.63
48926;BME280;39838;59.938;30.642;2024-03-22T08:33:51;99942.72;;;4.82;87.58
48926;BME280;39838;59.938;30.642;2024-03-22T08:36:18;99945.34;;;4.86;87.15
48926;BME280;39838;59.938;30.642;2024-03-22T08:38:45;99931.63;;;4.87;87.48
48926;BME280;39838;59.938;30.642;2024-03-22T08:41:12;99921.28;;;4.81;87.42
48926;BME280;39838;59.938;30.642;2024-03-22T08:43:40;99934.34;;;4.97;86.92
48926;BME280;39838;59.938;30.642;2024-03-22T08:46:07;99931.78;;;5.00;87.55
48926;BME280;39838;59.938;30.642;2024-03-22T08:48:33;99933.56;;;5.02;87.33
48926;BME280;39838;59.938;30.642;2024-03-22T08:51:00;99923.34;;;5.08;86.67
48926;BME280;39838;59.938;30.642;2024-03-22T08:53:27;99929.38;;;5.09;87.04
48926;BME280;39838;59.938;30.642;2024-03-22T08:55:54;99927.66;;;5.11;87.23
48926;BME280;39838;59.938;30.642;2024-03-22T08:58:20;99922.53;;;5.12;86.46
48926;BME280;39838;59.938;30.642;2024-03-22T09:00:49;99921.56;;;5.03;86.83
48926;BME280;39838;59.938;30.642;2024-03-22T09:03:15;99916.41;;;5.03;87.53
48926;BME280;39838;59.938;30.642;2024-03-22T09:05:43;99923.28;;;5.04;87.14
48926;BME280;39838;59.938;30.642;2024-03-22T09:08:09;99913.78;;;5.00;88.01
48926;BME280;39838;59.938;30.642;2024-03-22T09:10:36;99917.25;;;5.02;88.04
48926;BME280;39838;59.938;30.642;2024-03-22T09:13:03;99918.13;;;5.04;87.71
48926;BME280;39838;59.938;30.642;2024-03-22T09:15:30;99915.56;;;5.04;88.25
48926;BME280;39838;59.938;30.642;2024-03-22T09:17:58;99907.03;;;5.09;88.00
48926;BME280;39838;59.938;30.642;2024-03-22T09:20:25;99908.78;;;5.12;87.91
48926;BME280;39838;59.938;30.642;2024-03-22T09:22:51;99901.03;;;5.09;87.52
48926;BME280;39838;59.938;30.642;2024-03-22T09:25:18;99902.75;;;5.10;87.45
48926;BME280;39838;59.938;30.642;2024-03-22T09:27:44;99900.22;;;5.14;88.05
48926;BME280;39838;59.938;30.642;2024-03-22T09:30:12;99893.41;;;5.16;87.20
48926;BME280;39838;59.938;30.642;2024-03-22T09:32:39;99895.97;;;5.15;87.74
48926;BME280;39838;59.938;30.642;2024-03-22T09:35:08;99892.47;;;5.10;88.02
48926;BME280;39838;59.938;30.642;2024-03-22T09:37:36;99883.91;;;5.14;88.08
48926;BME280;39838;59.938;30.642;2024-03-22T09:40:02;99880.50;;;5.15;88.19
48926;BME280;39838;59.938;30.642;2024-03-22T09:42:33;99881.34;;;5.14;87.97
48926;BME280;39838;59.938;30.642;2024-03-22T09:45:08;99876.22;;;5.15;87.98
48926;BME280;39838;59.938;30.642;2024-03-22T09:47:36;99875.38;;;5.16;87.85
48926;BME280;39838;59.938;30.642;2024-03-22T09:50:04;99872.78;;;5.15;87.24
48926;BME280;39838;59.938;30.642;2024-03-22T09:52:35;99867.66;;;5.18;87.70
48926;BME280;39838;59.938;30.642;2024-03-22T09:55:05;99865.94;;;5.18;87.19
48926;BME280;39838;59.938;30.642;2024-03-22T09:57:34;99866.81;;;5.19;87.77
48926;BME280;39838;59.938;30.642;2024-03-22T10:00:01;99853.91;;;5.17;87.11
48926;BME280;39838;59.938;30.642;2024-03-22T10:02:30;99853.13;;;5.23;87.31
48926;BME280;39838;59.938;30.642;2024-03-22T10:04:56;99845.34;;;5.18;87.42
48926;BME280;39838;59.938;30.642;2024-03-22T10:07:24;99841.88;;;5.15;87.85
48926;BME280;39838;59.938;30.642;2024-03-22T10:09:53;99840.13;;;5.14;87.55
48926;BME280;39838;59.938;30.642;2024-03-22T10:12:20;99841.91;;;5.18;87.28
48926;BME280;39838;59.938;30.642;2024-03-22T10:14:46;99840.25;;;5.22;86.90
48926;BME280;39838;59.938;30.642;2024-03-22T10:17:13;99831.59;;;5.15;87.13
48926;BME280;39838;59.938;30.642;2024-03-22T10:19:39;99829.84;;;5.14;87.64
48926;BME280;39838;59.938;30.642;2024-03-22T10:22:07;99831.53;;;5.10;87.47
48926;BME280;39838;59.938;30.642;2024-03-22T10:24:33;99828.16;;;5.17;87.92
48926;BME280;39838;59.938;30.642;2024-03-22T10:27:02;99828.16;;;5.17;87.64
48926;BME280;39838;59.938;30.642;2024-03-22T10:29:29;99827.31;;;5.20;87.76
48926;BME280;39838;59.938;30.642;2024-03-22T10:31:56;99824.72;;;5.15;87.51
48926;BME280;39838;59.938;30.642;2024-03-22T10:34:22;99820.34;;;5.08;87.51
48926;BME280;39838;59.938;30.642;2024-03-22T10:36:51;99822.88;;;5.07;87.27
48926;BME280;39838;59.938;30.642;2024-03-22T10:39:18;99822.94;;;5.08;88.08
48926;BME280;39838;59.938;30.642;2024-03-22T10:41:46;99820.38;;;5.10;88.04
48926;BME280;39838;59.938;30.642;2024-03-22T10:44:15;99817.78;;;5.10;87.36
48926;BME280;39838;59.938;30.642;2024-03-22T10:46:44;99820.31;;;5.07;88.20
48926;BME280;39838;59.938;30.642;2024-03-22T10:49:15;99815.13;;;5.04;87.70
48926;BME280;39838;59.938;30.642;2024-03-22T10:51:44;99819.44;;;5.06;87.90
48926;BME280;39838;59.938;30.642;2024-03-22T10:54:13;99810.94;;;5.12;87.47
48926;BME280;39838;59.938;30.642;2024-03-22T10:56:45;99810.09;;;5.13;88.17
48926;BME280;39838;59.938;30.642;2024-03-22T10:59:18;99811.81;;;5.14;88.28
48926;BME280;39838;59.938;30.642;2024-03-22T11:01:46;99814.41;;;5.15;87.66
48926;BME280;39838;59.938;30.642;2024-03-22T11:04:14;99801.56;;;5.20;88.36
48926;BME280;39838;59.938;30.642;2024-03-22T11:06:47;99799.84;;;5.19;87.93
48926;BME280;39838;59.938;30.642;2024-03-22T11:09:18;99798.13;;;5.18;87.94
48926;BME280;39838;59.938;30.642;2024-03-22T11:11:47;99804.97;;;5.16;88.34
48926;BME280;39838;59.938;30.642;2024-03-22T11:14:14;99800.66;;;5.13;88.23
48926;BME280;39838;59.938;30.642;2024-03-22T11:16:43;99800.69;;;5.16;88.91
48926;BME280;39838;59.938;30.642;2024-03-22T11:19:10;99792.97;;;5.18;88.80
48926;BME280;39838;59.938;30.642;2024-03-22T11:21:37;99782.59;;;5.12;88.26
48926;BME280;39838;59.938;30.642;2024-03-22T11:24:04;99789.41;;;5.07;89.28
48926;BME280;39838;59.938;30.642;2024-03-22T11:26:31;99778.22;;;5.03;88.77
48926;BME280;39838;59.938;30.642;2024-03-22T11:28:58;99754.91;;;4.88;89.15
48926;BME280;39838;59.938;30.642;2024-03-22T11:31:27;99777.31;;;4.98;89.75
48926;BME280;39838;59.938;30.642;2024-03-22T11:33:55;99773.91;;;5.01;89.20
48926;BME280;39838;59.938;30.642;2024-03-22T11:36:22;99768.72;;;4.98;89.99
48926;BME280;39838;59.938;30.642;2024-03-22T11:38:49;99767.00;;;4.98;89.46
48926;BME280;39838;59.938;30.642;2024-03-22T11:41:17;99760.19;;;5.02;90.04
48926;BME280;39838;59.938;30.642;2024-03-22T11:43:46;99755.16;;;5.12;89.77
48926;BME280;39838;59.938;30.642;2024-03-22T11:46:13;99756.06;;;5.19;89.61
48926;BME280;39838;59.938;30.642;2024-03-22T11:48:42;99745.81;;;5.22;89.66
48926;BME280;39838;59.938;30.642;2024-03-22T11:51:10;99750.13;;;5.23;89.55
48926;BME280;39838;59.938;30.642;2024-03-22T11:53:37;99735.47;;;5.20;89.78
48926;BME280;39838;59.938;30.642;2024-03-22T11:56:04;99732.09;;;5.22;90.21
48926;BME280;39838;59.938;30.642;2024-03-22T11:58:30;99731.22;;;5.24;89.77
48926;BME280;39838;59.938;30.642;2024-03-22T12:00:58;99721.91;;;5.37;89.43
48926;BME280;39838;59.938;30.642;2024-03-22T12:03:25;99720.25;;;5.42;89.90
48926;BME280;39838;59.938;30.642;2024-03-22T12:05:54;99717.69;;;5.48;89.34
48926;BME280;39838;59.938;30.642;2024-03-22T12:08:20;99707.44;;;5.54;89.19
48926;BME280;39838;59.938;30.642;2024-03-22T12:10:48;99698.03;;;5.59;89.34
48926;BME280;39838;59.938;30.642;2024-03-22T12:13:14;99704.09;;;5.63;88.55
48926;BME280;39838;59.938;30.642;2024-03-22T12:15:41;99688.63;;;5.63;88.33
48926;BME280;39838;59.938;30.642;2024-03-22T12:18:07;99686.09;;;5.73;88.20
48926;BME280;39838;59.938;30.642;2024-03-22T12:20:34;99692.16;;;5.77;87.74
48926;BME280;39838;59.938;30.642;2024-03-22T12:23:02;99681.84;;;5.77;87.83
48926;BME280;39838;59.938;30.642;2024-03-22T12:25:29;99679.31;;;5.83;87.18
48926;BME280;39838;59.938;30.642;2024-03-22T12:27:55;99673.28;;;5.87;87.00
48926;BME280;39838;59.938;30.642;2024-03-22T12:30:22;99669.00;;;5.86;87.15
48926;BME280;39838;59.938;30.642;2024-03-22T12:32:48;99672.41;;;5.82;86.49
48926;BME280;39838;59.938;30.642;2024-03-22T12:35:16;99666.41;;;5.83;86.81
48926;BME280;39838;59.938;30.642;2024-03-22T12:37:42;99658.66;;;5.82;86.25
48926;BME280;39838;59.938;30.642;2024-03-22T12:40:11;99652.63;;;5.80;86.41
48926;BME280;39838;59.938;30.642;2024-03-22T12:42:39;99637.97;;;5.75;86.40
48926;BME280;39838;59.938;30.642;2024-03-22T12:45:07;99632.78;;;5.68;85.88
48926;BME280;39838;59.938;30.642;2024-03-22T12:47:33;99645.72;;;5.71;85.76
48926;BME280;39838;59.938;30.642;2024-03-22T12:50:00;99638.88;;;5.76;85.14
48926;BME280;39838;59.938;30.642;2024-03-22T12:52:26;99641.47;;;5.76;85.22
48926;BME280;39838;59.938;30.642;2024-03-22T12:54:54;99636.31;;;5.76;84.47